Time;durP1;ratioP1;P1;durP2;ratioP2;P2;SDS_P1;SDS_P2;PMS_P1;PMS_P2;Temp;Humidity;BMP_temperature;BMP_pressure;BME280_temperature;BME280_humidity;BME280_pressure;Samples;Min_cycle;Max_cycle;Signal;HPM_P1;HPM_P2
2023/04/12 00:02:13;;;;;;;10.73;2.70;;;8.80;95.60;;;;;;5057076;28;20047;-72
2023/04/12 00:04:39;;;;;;;11.60;2.08;;;8.80;95.60;;;;;;5073553;28;20090;-72
2023/04/12 00:07:04;;;;;;;11.82;2.40;;;8.80;95.80;;;;;;5073832;28;20076;-72
2023/04/12 00:09:31;;;;;;;11.73;2.03;;;8.70;95.90;;;;;;5073510;28;20412;-72
2023/04/12 00:12:00;;;;;;;9.55;2.50;;;8.80;96.00;;;;;;5057424;28;20051;-72
2023/04/12 00:14:26;;;;;;;11.20;2.25;;;8.70;96.10;;;;;;5073416;28;20047;-72
2023/04/12 00:16:51;;;;;;;10.93;2.33;;;8.80;96.20;;;;;;5055580;28;20048;-72
2023/04/12 00:19:17;;;;;;;11.05;2.40;;;8.80;96.30;;;;;;5056690;28;20052;-72
2023/04/12 00:21:43;;;;;;;12.05;2.40;;;8.80;96.40;;;;;;5056543;28;20040;-72
2023/04/12 00:24:09;;;;;;;12.05;2.28;;;8.80;96.50;;;;;;5056523;28;20124;-71
2023/04/12 00:26:35;;;;;;;8.40;1.88;;;8.80;96.60;;;;;;5073161;28;20178;-72
2023/04/12 00:29:00;;;;;;;6.63;2.10;;;8.80;96.80;;;;;;5073127;28;20098;-72
2023/04/12 00:31:26;;;;;;;8.00;2.42;;;8.80;96.80;;;;;;5073010;28;20040;-71
2023/04/12 00:33:52;;;;;;;9.32;2.08;;;8.80;97.00;;;;;;5056333;28;20115;-72
2023/04/12 00:36:18;;;;;;;7.97;2.15;;;8.80;97.10;;;;;;5072941;28;20056;-72
2023/04/12 00:38:47;;;;;;;11.10;2.38;;;8.80;97.40;;;;;;5056245;28;20047;-72
2023/04/12 00:41:16;;;;;;;8.65;2.38;;;8.80;97.40;;;;;;5073955;28;20033;-71
2023/04/12 00:43:42;;;;;;;9.27;2.45;;;8.80;97.60;;;;;;5056137;28;20041;-71
2023/04/12 00:46:08;;;;;;;9.15;2.53;;;8.80;97.70;;;;;;5056162;28;20055;-71
2023/04/12 00:48:36;;;;;;;10.57;2.33;;;8.80;97.80;;;;;;5072713;28;20399;-72
2023/04/12 00:51:02;;;;;;;8.20;2.20;;;8.80;98.10;;;;;;5055976;28;20489;-71
2023/04/12 00:53:28;;;;;;;9.18;2.13;;;8.90;98.20;;;;;;5072569;28;20074;-71
2023/04/12 00:55:54;;;;;;;11.35;2.30;;;8.90;98.30;;;;;;5056213;28;20043;-72
2023/04/12 00:58:23;;;;;;;11.15;2.15;;;8.90;98.50;;;;;;5056128;28;20045;-72
2023/04/12 01:00:51;;;;;;;7.78;2.17;;;8.90;98.80;;;;;;5056018;28;20127;-72
2023/04/12 01:03:26;;;;;;;13.00;2.97;;;8.90;99.00;;;;;;5055682;28;20052;-71
2023/04/12 01:06:17;;;;;;;8.77;2.22;;;8.90;99.10;;;;;;5056028;28;20484;-72
2023/04/12 01:09:08;;;;;;;10.70;2.20;;;9.00;99.40;;;;;;5072639;28;20067;-72
2023/04/12 01:11:50;;;;;;;10.45;2.97;;;9.00;99.40;;;;;;5072531;28;20509;-71
2023/04/12 01:14:57;;;;;;;8.90;2.08;;;9.00;99.70;;;;;;5073456;28;20085;-72
2023/04/12 01:17:28;;;;;;;13.80;2.70;;;9.00;99.90;;;;;;5055878;28;20036;-71
2023/04/12 01:20:12;;;;;;;7.75;2.55;;;9.00;99.90;;;;;;5073348;28;20082;-71
2023/04/12 01:23:01;;;;;;;9.50;2.53;;;9.00;99.90;;;;;;5055480;28;20056;-72
2023/04/12 01:25:37;;;;;;;10.05;2.55;;;9.00;99.90;;;;;;5072452;28;20511;-71
2023/04/12 01:28:04;;;;;;;10.85;2.20;;;9.00;99.90;;;;;;5071784;28;20043;-72
2023/04/12 01:30:31;;;;;;;8.07;2.28;;;9.00;99.90;;;;;;5072207;28;20080;-71
2023/04/12 01:33:00;;;;;;;13.25;2.58;;;9.00;99.90;;;;;;5038727;28;20040;-71
2023/04/12 01:35:30;;;;;;;14.88;3.05;;;9.00;99.90;;;;;;5055295;28;20386;-71
2023/04/12 01:38:00;;;;;;;10.52;2.22;;;9.00;99.90;;;;;;5072803;28;20075;-71
2023/04/12 01:40:28;;;;;;;13.40;2.88;;;8.90;99.90;;;;;;5071792;28;20063;-71
2023/04/12 01:43:08;;;;;;;9.65;2.30;;;9.00;99.90;;;;;;5055136;28;20047;-71
2023/04/12 01:45:34;;;;;;;8.88;1.92;;;8.90;99.90;;;;;;5055204;28;20075;-71
2023/04/12 01:48:01;;;;;;;6.93;2.10;;;8.90;99.90;;;;;;5055122;28;20028;-72
2023/04/12 01:50:58;;;;;;;10.75;2.10;;;8.90;99.90;;;;;;5055020;28;20037;-71
2023/04/12 01:53:56;;;;;;;10.05;2.10;;;8.90;99.90;;;;;;5023371;28;20044;-72
2023/04/12 01:56:23;;;;;;;8.95;2.63;;;8.90;99.90;;;;;;5072070;28;20516;-72
2023/04/12 01:58:51;;;;;;;9.02;2.00;;;8.90;99.90;;;;;;5055008;28;20072;-72
2023/04/12 02:01:18;;;;;;;10.13;2.08;;;8.90;99.90;;;;;;5071676;28;20086;-71
2023/04/12 02:03:45;;;;;;;10.00;1.90;;;8.90;99.90;;;;;;5071646;28;20102;-71
2023/04/12 02:06:11;;;;;;;9.30;1.88;;;8.90;99.90;;;;;;5071944;28;20045;-71
2023/04/12 02:08:37;;;;;;;12.65;2.55;;;8.90;99.90;;;;;;5071662;28;20048;-72
2023/04/12 02:11:13;;;;;;;9.15;1.88;;;8.80;99.90;;;;;;5071947;28;20037;-71
2023/04/12 02:13:39;;;;;;;10.48;2.08;;;8.80;99.90;;;;;;5054908;28;20051;-71
2023/04/12 02:16:06;;;;;;;10.52;2.63;;;8.80;99.90;;;;;;5071539;28;20086;-71
2023/04/12 02:18:34;;;;;;;8.18;2.00;;;8.80;99.90;;;;;;5038608;28;20532;-71
2023/04/12 02:21:00;;;;;;;7.53;2.20;;;8.80;99.90;;;;;;5071462;28;20048;-71
2023/04/12 02:23:26;;;;;;;8.05;2.00;;;8.70;99.90;;;;;;5071560;28;20037;-71
2023/04/12 02:25:51;;;;;;;10.48;2.00;;;8.80;99.90;;;;;;5055022;28;20504;-72
2023/04/12 02:28:17;;;;;;;11.35;2.75;;;8.80;99.90;;;;;;5071496;28;20508;-72
2023/04/12 02:30:43;;;;;;;8.20;1.90;;;8.70;99.90;;;;;;5054724;28;20120;-72
2023/04/12 02:33:08;;;;;;;11.13;2.20;;;8.70;99.90;;;;;;5071379;28;20098;-71
2023/04/12 02:35:35;;;;;;;10.50;1.92;;;8.70;99.90;;;;;;5071393;28;20040;-71
2023/04/12 02:38:02;;;;;;;6.57;1.80;;;8.70;99.90;;;;;;5054669;28;20087;-72
2023/04/12 02:40:28;;;;;;;8.02;1.70;;;8.70;99.90;;;;;;5056124;28;20041;-71
2023/04/12 02:42:54;;;;;;;6.32;1.30;;;8.70;99.90;;;;;;5075196;28;20079;-71
2023/04/12 02:45:20;;;;;;;9.60;2.17;;;8.60;99.90;;;;;;5075102;28;20480;-72
2023/04/12 02:47:46;;;;;;;9.02;2.25;;;8.60;99.90;;;;;;5075011;28;20041;-72
2023/04/12 02:50:11;;;;;;;12.82;2.25;;;8.70;99.90;;;;;;5075195;28;20086;-72
2023/04/12 02:52:37;;;;;;;8.02;1.85;;;8.60;99.90;;;;;;5074962;28;20036;-72
2023/04/12 02:55:03;;;;;;;7.25;2.05;;;8.60;99.90;;;;;;5075198;28;20131;-71
2023/04/12 02:57:28;;;;;;;8.13;2.10;;;8.60;99.90;;;;;;5058150;28;20530;-71
2023/04/12 02:59:54;;;;;;;8.65;2.33;;;8.60;99.90;;;;;;5074831;28;20048;-72
2023/04/12 03:02:21;;;;;;;7.38;2.22;;;8.60;99.90;;;;;;5057866;28;20083;-71
2023/04/12 03:04:49;;;;;;;9.05;1.90;;;8.50;99.90;;;;;;5074750;28;20033;-71
2023/04/12 03:07:17;;;;;;;11.05;2.17;;;8.50;99.90;;;;;;5074684;28;20550;-71
2023/04/12 03:09:44;;;;;;;6.65;1.67;;;8.60;99.90;;;;;;5074632;28;20048;-71
2023/04/12 03:12:09;;;;;;;9.38;2.08;;;8.50;99.90;;;;;;5058105;28;20050;-71
2023/04/12 03:14:35;;;;;;;11.38;2.03;;;8.60;99.90;;;;;;5074575;28;20044;-71
2023/04/12 03:17:00;;;;;;;7.53;1.65;;;8.50;99.90;;;;;;5074526;28;20128;-72
2023/04/12 03:19:27;;;;;;;8.20;1.98;;;8.50;99.90;;;;;;5074483;28;20066;-72
2023/04/12 03:21:53;;;;;;;6.78;1.42;;;8.50;99.90;;;;;;5074239;28;20047;-71
2023/04/12 03:24:19;;;;;;;5.57;1.85;;;8.50;99.90;;;;;;5057731;28;20037;-71
2023/04/12 03:26:45;;;;;;;5.90;1.77;;;8.60;99.90;;;;;;5074645;28;20048;-71
2023/04/12 03:29:11;;;;;;;8.50;1.90;;;8.50;99.90;;;;;;5074333;28;20052;-71
2023/04/12 03:31:36;;;;;;;6.18;2.13;;;8.50;99.90;;;;;;5057455;28;20076;-71
2023/04/12 03:34:02;;;;;;;5.63;1.50;;;8.50;99.90;;;;;;5057505;28;20540;-71
2023/04/12 03:36:29;;;;;;;11.40;1.88;;;8.50;99.90;;;;;;5074191;28;20045;-71
2023/04/12 03:38:55;;;;;;;7.07;2.05;;;8.50;99.90;;;;;;5057359;28;20458;-72
2023/04/12 03:41:22;;;;;;;7.30;1.83;;;8.50;99.90;;;;;;5073877;28;20037;-72
2023/04/12 03:43:47;;;;;;;7.15;1.65;;;8.50;99.90;;;;;;5073971;28;20505;-72
2023/04/12 03:46:14;;;;;;;4.75;1.50;;;8.50;99.90;;;;;;5074219;28;20052;-72
2023/04/12 03:48:40;;;;;;;5.57;1.63;;;8.60;99.90;;;;;;5057166;28;20041;-72
2023/04/12 03:51:07;;;;;;;8.18;1.80;;;8.60;99.90;;;;;;5073573;28;20058;-71
2023/04/12 03:53:33;;;;;;;7.63;2.08;;;8.60;99.90;;;;;;5057115;28;20036;-71
2023/04/12 03:55:59;;;;;;;9.13;1.80;;;8.60;99.90;;;;;;5074052;28;20067;-72
2023/04/12 03:58:24;;;;;;;7.25;2.13;;;8.60;99.90;;;;;;5074031;28;20533;-72
2023/04/12 04:00:50;;;;;;;5.15;1.65;;;8.60;99.90;;;;;;5057007;28;20381;-71
2023/04/12 04:03:16;;;;;;;8.15;2.00;;;8.60;99.90;;;;;;5056899;28;20045;-71
2023/04/12 04:05:42;;;;;;;9.55;2.33;;;8.60;99.90;;;;;;5073633;28;20032;-71
2023/04/12 04:08:08;;;;;;;8.10;1.98;;;8.60;99.90;;;;;;5040613;28;20082;-72
2023/04/12 04:10:34;;;;;;;5.50;1.58;;;8.60;99.90;;;;;;5056785;28;20044;-72
2023/04/12 04:13:00;;;;;;;8.65;1.92;;;8.60;99.90;;;;;;5073473;28;20079;-71
2023/04/12 04:15:26;;;;;;;10.48;2.28;;;8.60;99.90;;;;;;5056715;28;20067;-71
2023/04/12 04:17:52;;;;;;;8.35;2.15;;;8.60;99.90;;;;;;5073369;28;20041;-72
2023/04/12 04:20:19;;;;;;;7.57;1.92;;;8.60;99.90;;;;;;5073237;28;20043;-71
2023/04/12 04:22:48;;;;;;;5.88;1.92;;;8.60;99.90;;;;;;5056497;28;20040;-72
2023/04/12 04:25:14;;;;;;;7.65;2.05;;;8.50;99.90;;;;;;5056555;28;20045;-72
2023/04/12 04:27:46;;;;;;;8.93;1.95;;;8.50;99.90;;;;;;5056777;28;20040;-71
2023/04/12 04:30:14;;;;;;;7.13;2.10;;;8.50;99.90;;;;;;5073306;28;20075;-71
2023/04/12 04:32:40;;;;;;;7.93;2.25;;;8.50;99.90;;;;;;5073049;28;20409;-71
2023/04/12 04:35:06;;;;;;;6.82;2.08;;;8.40;99.90;;;;;;5073266;28;20124;-71
2023/04/12 04:37:35;;;;;;;5.35;1.95;;;8.40;99.90;;;;;;5056627;28;20045;-72
2023/04/12 04:40:07;;;;;;;9.10;2.45;;;8.40;99.90;;;;;;5056033;28;20496;-72
2023/04/12 04:42:33;;;;;;;8.38;2.00;;;8.40;99.90;;;;;;5072799;28;20040;-72
2023/04/12 04:45:03;;;;;;;6.47;1.75;;;8.40;99.90;;;;;;5072811;28;20128;-72
2023/04/12 04:47:29;;;;;;;6.70;2.20;;;8.40;99.90;;;;;;5073068;28;20184;-72
2023/04/12 04:49:57;;;;;;;4.57;1.38;;;8.30;99.90;;;;;;5072948;28;20047;-72
2023/04/12 04:52:23;;;;;;;8.70;2.42;;;8.30;99.90;;;;;;5072998;28;20126;-72
2023/04/12 04:54:48;;;;;;;9.68;2.33;;;8.30;99.90;;;;;;5056260;28;20530;-71
2023/04/12 04:57:14;;;;;;;9.63;2.33;;;8.30;99.90;;;;;;5072620;28;20574;-71
2023/04/12 04:59:40;;;;;;;12.13;2.40;;;8.30;99.90;;;;;;5072529;28;20040;-71
2023/04/12 05:02:06;;;;;;;8.43;2.60;;;8.20;99.90;;;;;;5072037;28;20137;-71
2023/04/12 05:04:31;;;;;;;5.63;2.00;;;8.20;99.90;;;;;;5072098;28;20059;-71
2023/04/12 05:06:57;;;;;;;8.82;2.25;;;8.30;99.90;;;;;;5055790;28;20045;-71
2023/04/12 05:09:23;;;;;;;9.15;2.38;;;8.20;99.90;;;;;;5072623;28;20125;-72
2023/04/12 05:11:48;;;;;;;9.30;2.75;;;8.20;99.90;;;;;;5055544;28;20051;-71
2023/04/12 05:14:14;;;;;;;9.32;2.42;;;8.20;99.90;;;;;;5055649;28;20036;-71
2023/04/12 05:16:39;;;;;;;7.30;2.20;;;8.20;99.90;;;;;;5072190;28;20124;-71
2023/04/12 05:19:05;;;;;;;11.93;2.63;;;8.20;99.90;;;;;;5072215;28;20048;-71
2023/04/12 05:21:32;;;;;;;8.63;2.70;;;8.20;99.90;;;;;;5072080;28;20052;-71
2023/04/12 05:23:58;;;;;;;8.68;2.53;;;8.20;99.90;;;;;;5056141;28;20048;-71
2023/04/12 05:26:24;;;;;;;6.80;2.47;;;8.20;99.90;;;;;;5055494;28;20045;-71
2023/04/12 05:28:50;;;;;;;7.32;2.40;;;8.20;99.90;;;;;;5072081;28;20039;-72
2023/04/12 05:31:16;;;;;;;8.98;2.60;;;8.10;99.90;;;;;;5072285;28;20043;-71
2023/04/12 05:33:43;;;;;;;7.40;2.60;;;8.10;99.90;;;;;;5055342;28;20041;-72
2023/04/12 05:36:10;;;;;;;5.88;2.10;;;8.10;99.90;;;;;;5055248;28;20170;-72
2023/04/12 05:38:35;;;;;;;11.55;3.30;;;8.10;99.90;;;;;;5055227;28;20036;-72
2023/04/12 05:41:03;;;;;;;7.28;2.55;;;8.10;99.90;;;;;;5055028;28;20051;-72
2023/04/12 05:43:29;;;;;;;9.52;2.53;;;8.10;99.90;;;;;;5055053;28;20040;-71
2023/04/12 05:45:55;;;;;;;8.32;2.67;;;8.10;99.90;;;;;;5071852;28;20123;-71
2023/04/12 05:48:20;;;;;;;6.97;2.25;;;8.10;99.90;;;;;;5071916;28;20037;-71
2023/04/12 05:50:50;;;;;;;6.28;2.10;;;8.10;99.90;;;;;;5055033;28;20041;-71
2023/04/12 05:53:16;;;;;;;8.52;2.55;;;8.10;99.90;;;;;;5072087;28;20059;-72
2023/04/12 05:55:42;;;;;;;7.38;2.30;;;8.10;99.90;;;;;;5055138;28;20485;-71
2023/04/12 05:58:08;;;;;;;6.07;1.90;;;8.10;99.90;;;;;;5055109;28;20080;-71
2023/04/12 06:00:35;;;;;;;10.23;2.10;;;8.10;99.90;;;;;;5071936;28;20123;-71
2023/04/12 06:03:03;;;;;;;9.13;2.30;;;8.10;99.90;;;;;;5055052;28;20048;-71
2023/04/12 06:05:29;;;;;;;6.70;2.13;;;8.10;99.90;;;;;;5071957;28;20485;-71
2023/04/12 06:07:54;;;;;;;9.55;2.08;;;8.10;99.90;;;;;;5071691;28;20471;-71
2023/04/12 06:10:20;;;;;;;6.40;2.03;;;8.10;99.90;;;;;;5054927;28;20040;-71
2023/04/12 06:12:46;;;;;;;3.42;1.95;;;8.00;99.90;;;;;;5071583;28;20052;-72
2023/04/12 06:15:12;;;;;;;5.15;2.28;;;8.00;99.90;;;;;;5057914;28;20127;-71
2023/04/12 06:17:38;;;;;;;7.70;2.08;;;8.00;99.90;;;;;;5075712;28;20123;-72
2023/04/12 06:20:07;;;;;;;8.60;2.72;;;8.00;99.90;;;;;;5075477;28;20095;-71
2023/04/12 06:22:32;;;;;;;5.18;1.88;;;8.00;99.90;;;;;;5042258;28;20538;-72
2023/04/12 06:24:58;;;;;;;4.43;1.70;;;8.00;99.90;;;;;;5058904;28;20045;-71
2023/04/12 06:27:24;;;;;;;6.50;2.05;;;8.00;99.90;;;;;;5075801;28;20040;-72
2023/04/12 06:29:50;;;;;;;8.35;2.15;;;8.00;99.90;;;;;;5075740;28;20044;-72
2023/04/12 06:32:16;;;;;;;5.68;1.88;;;8.00;99.90;;;;;;5075475;28;20071;-71
2023/04/12 06:34:42;;;;;;;5.63;1.80;;;8.00;99.90;;;;;;5075368;28;20052;-71
2023/04/12 06:37:08;;;;;;;7.47;2.10;;;8.10;99.90;;;;;;5058574;28;20037;-72
2023/04/12 06:39:33;;;;;;;6.15;2.20;;;8.10;99.90;;;;;;5058600;28;20041;-72
2023/04/12 06:42:00;;;;;;;5.93;2.10;;;8.00;99.90;;;;;;5075236;28;20129;-71
2023/04/12 06:44:26;;;;;;;7.28;2.17;;;8.00;99.90;;;;;;5075152;28;20116;-71
2023/04/12 06:46:52;;;;;;;3.85;1.75;;;8.00;99.90;;;;;;5075360;28;20040;-71
2023/04/12 06:49:18;;;;;;;6.85;2.42;;;8.00;99.90;;;;;;5076257;28;20558;-71
2023/04/12 06:51:43;;;;;;;6.15;2.17;;;8.10;99.90;;;;;;5074925;28;20036;-72
2023/04/12 06:54:09;;;;;;;7.55;2.00;;;8.00;99.90;;;;;;5074896;28;20044;-71
2023/04/12 06:56:38;;;;;;;6.97;2.08;;;8.00;99.90;;;;;;5058261;28;20044;-71
2023/04/12 06:59:04;;;;;;;6.30;1.80;;;8.00;99.90;;;;;;5074828;28;20076;-71
2023/04/12 07:01:29;;;;;;;7.65;2.20;;;8.00;99.90;;;;;;5074730;28;20076;-71
2023/04/12 07:03:55;;;;;;;5.40;1.90;;;8.00;99.90;;;;;;5074751;28;20037;-72
2023/04/12 07:06:21;;;;;;;6.22;2.20;;;8.00;99.90;;;;;;5074790;28;20499;-72
2023/04/12 07:08:47;;;;;;;6.00;2.00;;;8.00;99.90;;;;;;5074719;28;20035;-72
2023/04/12 07:11:12;;;;;;;6.05;1.90;;;8.00;99.90;;;;;;5057891;28;20040;-71
2023/04/12 07:13:38;;;;;;;6.13;2.10;;;8.00;99.90;;;;;;5074628;28;20210;-71
2023/04/12 07:16:04;;;;;;;8.02;2.20;;;8.00;99.90;;;;;;5074504;28;20068;-72
2023/04/12 07:18:30;;;;;;;5.53;2.10;;;8.00;99.90;;;;;;5074550;28;20072;-72
2023/04/12 07:20:57;;;;;;;7.68;2.40;;;8.00;99.90;;;;;;5057683;28;20115;-72
2023/04/12 07:23:23;;;;;;;5.38;1.80;;;8.00;99.90;;;;;;5057748;28;20045;-71
2023/04/12 07:25:48;;;;;;;6.10;2.08;;;8.00;99.90;;;;;;5057062;28;20485;-71
2023/04/12 07:28:14;;;;;;;4.82;2.13;;;8.10;99.90;;;;;;5074354;28;20189;-71
2023/04/12 07:30:40;;;;;;;7.40;2.45;;;8.00;99.90;;;;;;5074270;28;20039;-71
2023/04/12 07:33:06;;;;;;;7.97;2.40;;;8.10;99.90;;;;;;5074282;28;20097;-71
2023/04/12 07:35:32;;;;;;;4.82;2.25;;;8.00;99.90;;;;;;5057494;28;20408;-72
2023/04/12 07:37:59;;;;;;;5.57;2.20;;;8.00;99.90;;;;;;5074178;28;20051;-72
2023/04/12 07:40:25;;;;;;;6.07;2.35;;;8.00;99.90;;;;;;5073939;28;20044;-71
2023/04/12 07:42:51;;;;;;;5.38;2.22;;;8.00;99.90;;;;;;5057525;28;20047;-72
2023/04/12 07:45:18;;;;;;;7.68;2.30;;;8.10;99.90;;;;;;5057391;28;20039;-71
2023/04/12 07:47:43;;;;;;;7.25;2.30;;;8.00;99.90;;;;;;5057449;28;20538;-72
2023/04/12 07:50:09;;;;;;;6.70;2.35;;;8.10;99.90;;;;;;5073877;28;20123;-71
2023/04/12 07:52:35;;;;;;;8.73;2.50;;;8.00;99.90;;;;;;5074316;28;20040;-71
2023/04/12 07:55:00;;;;;;;5.63;2.90;;;8.10;99.90;;;;;;5074127;28;20054;-72
2023/04/12 07:57:26;;;;;;;4.53;2.55;;;8.10;99.90;;;;;;5074104;28;20094;-71
2023/04/12 07:59:52;;;;;;;7.85;2.80;;;8.10;99.90;;;;;;5075570;28;20477;-71
2023/04/12 08:02:23;;;;;;;4.47;2.75;;;8.10;99.90;;;;;;5073606;28;20067;-71
2023/04/12 08:04:55;;;;;;;6.70;2.60;;;8.10;99.90;;;;;;5057075;28;20080;-71
2023/04/12 08:07:21;;;;;;;4.28;2.38;;;8.20;99.90;;;;;;5073890;28;20040;-71
2023/04/12 08:09:47;;;;;;;6.25;2.63;;;8.10;99.90;;;;;;5057129;28;20436;-71
2023/04/12 08:12:13;;;;;;;6.97;2.92;;;8.10;99.90;;;;;;5073429;28;20158;-71
2023/04/12 08:14:39;;;;;;;9.95;3.00;;;8.10;99.90;;;;;;5073729;28;20120;-71
2023/04/12 08:17:05;;;;;;;4.88;2.80;;;8.20;99.90;;;;;;5073672;28;20486;-71
2023/04/12 08:19:30;;;;;;;3.58;2.78;;;8.10;99.90;;;;;;5056711;28;20500;-71
2023/04/12 08:21:56;;;;;;;4.00;2.65;;;8.20;99.90;;;;;;5056568;28;20079;-71
2023/04/12 08:24:22;;;;;;;6.10;2.92;;;8.20;99.90;;;;;;5056568;28;20409;-71
2023/04/12 08:26:50;;;;;;;6.53;3.03;;;8.20;99.90;;;;;;5056770;28;20036;-71
2023/04/12 08:29:15;;;;;;;5.85;3.10;;;8.20;99.90;;;;;;5074384;28;20504;-71
2023/04/12 08:31:41;;;;;;;6.43;3.08;;;8.20;99.90;;;;;;5056435;28;20060;-71
2023/04/12 08:34:06;;;;;;;5.55;3.20;;;8.20;99.90;;;;;;5073050;28;20119;-71
2023/04/12 08:36:32;;;;;;;5.00;3.20;;;8.20;99.90;;;;;;5073341;28;20046;-71
2023/04/12 08:39:01;;;;;;;5.78;3.50;;;8.20;99.90;;;;;;5072080;28;20098;-72
2023/04/12 08:41:27;;;;;;;7.80;3.60;;;8.30;99.90;;;;;;5056080;28;20520;-71
2023/04/12 08:43:56;;;;;;;4.85;3.35;;;8.30;99.90;;;;;;5072872;28;20066;-72
2023/04/12 08:46:22;;;;;;;5.03;3.40;;;8.30;99.90;;;;;;5056192;28;20037;-71
2023/04/12 08:48:53;;;;;;;5.93;4.10;;;8.40;99.90;;;;;;5056393;28;20098;-71
2023/04/12 08:51:20;;;;;;;8.02;4.05;;;8.40;99.90;;;;;;5072681;28;20447;-71
2023/04/12 08:53:47;;;;;;;6.72;4.60;;;8.30;99.90;;;;;;5056031;28;20044;-71
2023/04/12 08:56:13;;;;;;;7.53;4.82;;;8.40;99.90;;;;;;5072882;28;20055;-71
2023/04/12 08:58:49;;;;;;;5.65;4.53;;;8.50;99.90;;;;;;5091546;28;20436;-71
2023/04/12 09:01:16;;;;;;;8.02;5.80;;;8.40;99.90;;;;;;5089219;28;20069;-70
2023/04/12 09:03:43;;;;;;;8.60;5.93;;;8.50;99.90;;;;;;5089157;28;20051;-71
2023/04/12 09:06:09;;;;;;;8.73;6.60;;;8.50;99.90;;;;;;5089308;28;20048;-71
2023/04/12 09:08:35;;;;;;;6.53;5.93;;;8.50;99.90;;;;;;5089259;28;20036;-71
2023/04/12 09:11:14;;;;;;;7.03;6.28;;;8.40;99.90;;;;;;5089146;28;20047;-70
2023/04/12 09:13:39;;;;;;;7.55;6.43;;;8.40;99.90;;;;;;5089237;28;20044;-71
2023/04/12 09:16:05;;;;;;;10.23;7.60;;;8.40;99.90;;;;;;5089144;28;20032;-71
2023/04/12 09:18:47;;;;;;;7.78;6.45;;;8.50;99.90;;;;;;5088998;28;20054;-71
2023/04/12 09:21:13;;;;;;;7.28;6.38;;;8.50;99.90;;;;;;5089053;28;20040;-70
2023/04/12 09:23:38;;;;;;;8.30;6.07;;;8.50;99.90;;;;;;5089244;28;20036;-70
2023/04/12 09:26:05;;;;;;;9.13;6.97;;;8.50;99.90;;;;;;5088965;28;20519;-70
2023/04/12 09:28:31;;;;;;;7.50;6.75;;;8.60;99.90;;;;;;5090126;28;20524;-71
2023/04/12 09:30:58;;;;;;;7.38;6.55;;;8.70;99.90;;;;;;5088801;28;20044;-70
2023/04/12 09:33:37;;;;;;;9.13;7.53;;;8.80;99.90;;;;;;5089029;28;20048;-70
2023/04/12 09:36:05;;;;;;;7.60;6.45;;;9.00;99.90;;;;;;5089046;28;20131;-71
2023/04/12 09:38:31;;;;;;;7.47;6.13;;;9.10;99.90;;;;;;5088760;28;20105;-71
2023/04/12 09:41:18;;;;;;;8.93;5.18;;;9.20;99.90;;;;;;5088611;28;20523;-70
2023/04/12 09:43:44;;;;;;;6.97;5.22;;;9.30;99.90;;;;;;5071807;28;20044;-71
2023/04/12 09:46:12;;;;;;;5.95;4.88;;;9.30;99.90;;;;;;5088572;28;20059;-71
2023/04/12 09:48:39;;;;;;;8.23;5.70;;;9.40;99.90;;;;;;5088489;28;20055;-71
2023/04/12 09:51:05;;;;;;;8.00;5.55;;;9.40;99.90;;;;;;5088421;28;20048;-70
2023/04/12 09:53:33;;;;;;;7.88;5.20;;;9.60;99.90;;;;;;5071828;28;20040;-71
2023/04/12 09:56:02;;;;;;;6.70;4.22;;;9.70;99.90;;;;;;5088619;28;20056;-71
2023/04/12 09:58:30;;;;;;;10.25;5.55;;;9.80;99.90;;;;;;5088179;28;20059;-71
2023/04/12 10:00:59;;;;;;;5.70;4.25;;;9.90;99.90;;;;;;5088184;28;20124;-70
2023/04/12 10:03:25;;;;;;;4.25;3.50;;;9.90;99.90;;;;;;5088238;28;20032;-71
2023/04/12 10:05:51;;;;;;;5.85;3.97;;;9.90;99.90;;;;;;5088201;28;20119;-71
2023/04/12 10:08:18;;;;;;;7.90;4.35;;;9.90;99.90;;;;;;5085219;28;20110;-72
2023/04/12 10:10:45;;;;;;;6.72;4.00;;;10.00;99.90;;;;;;5074544;28;20044;-71
2023/04/12 10:13:12;;;;;;;5.93;3.60;;;10.00;99.90;;;;;;5074588;28;20048;-70
2023/04/12 10:15:39;;;;;;;6.57;3.30;;;10.20;99.90;;;;;;5074529;28;20543;-71
2023/04/12 10:18:06;;;;;;;9.57;3.33;;;10.20;99.90;;;;;;5074440;28;20093;-71
2023/04/12 10:20:32;;;;;;;7.70;3.10;;;10.20;99.90;;;;;;5074354;28;20041;-71
2023/04/12 10:22:58;;;;;;;7.82;3.88;;;10.30;99.90;;;;;;5074403;28;20036;-71
2023/04/12 10:25:26;;;;;;;9.50;3.28;;;10.40;99.90;;;;;;5074460;28;20051;-71
2023/04/12 10:27:52;;;;;;;11.85;3.97;;;10.40;99.90;;;;;;5074339;28;20048;-71
2023/04/12 10:30:23;;;;;;;9.77;4.20;;;10.40;99.90;;;;;;5074190;28;20048;-70
2023/04/12 10:33:09;;;;;;;6.88;3.15;;;10.50;99.90;;;;;;5074212;28;20129;-71
2023/04/12 10:36:11;;;;;;;12.07;4.03;;;10.40;99.90;;;;;;5074577;28;20048;-71
2023/04/12 10:38:45;;;;;;;7.60;3.08;;;10.50;99.90;;;;;;5074082;28;20049;-71
2023/04/12 10:41:13;;;;;;;8.90;3.67;;;10.60;99.90;;;;;;5073965;28;20451;-71
2023/04/12 10:43:50;;;;;;;9.25;3.42;;;10.70;99.90;;;;;;5073970;28;20036;-71
2023/04/12 10:46:37;;;;;;;11.45;3.38;;;10.80;99.90;;;;;;5073990;28;20036;-71
2023/04/12 10:49:09;;;;;;;7.68;3.65;;;10.90;99.90;;;;;;5074208;28;20036;-71
2023/04/12 10:51:35;;;;;;;12.20;3.53;;;11.40;99.90;;;;;;5073811;28;20048;-71
2023/04/12 10:54:07;;;;;;;12.00;3.15;;;11.70;99.90;;;;;;5073787;28;20040;-71
2023/04/12 10:56:42;;;;;;;8.88;3.22;;;11.70;99.90;;;;;;5073608;28;20044;-71
2023/04/12 10:59:12;;;;;;;8.40;2.22;;;11.70;99.90;;;;;;5073756;28;20096;-71
2023/04/12 11:01:39;;;;;;;8.20;2.30;;;11.70;99.90;;;;;;5073604;28;20040;-70
2023/04/12 11:04:12;;;;;;;10.07;3.00;;;11.80;99.90;;;;;;5073607;28;20086;-71
2023/04/12 11:06:56;;;;;;;7.20;2.28;;;12.00;99.90;;;;;;5073587;28;20033;-71
2023/04/12 11:09:22;;;;;;;14.05;4.03;;;12.30;99.90;;;;;;5073503;28;20039;-71
2023/04/12 11:11:48;;;;;;;10.70;2.55;;;12.60;99.90;;;;;;5073765;28;20455;-71
2023/04/12 11:14:15;;;;;;;9.68;2.58;;;12.90;99.90;;;;;;5073544;28;20044;-71
2023/04/12 11:17:05;;;;;;;9.05;2.53;;;13.20;99.90;;;;;;5073399;28;20043;-71
2023/04/12 11:19:32;;;;;;;13.98;2.90;;;13.60;99.90;;;;;;5073448;28;20037;-72
2023/04/12 11:22:00;;;;;;;15.77;3.00;;;13.80;99.90;;;;;;5072366;28;20043;-71
2023/04/12 11:24:26;;;;;;;13.95;2.30;;;13.90;99.90;;;;;;5073224;28;20033;-71
2023/04/12 11:26:52;;;;;;;12.23;2.90;;;13.80;99.90;;;;;;5073481;28;20110;-71
2023/04/12 11:29:25;;;;;;;11.05;2.90;;;13.80;99.90;;;;;;5074659;28;20043;-72
2023/04/12 11:31:50;;;;;;;13.50;2.67;;;13.90;99.90;;;;;;5073125;28;20033;-71
2023/04/12 11:34:17;;;;;;;12.30;2.92;;;14.00;99.90;;;;;;5074132;28;20040;-71
2023/04/12 11:36:44;;;;;;;9.80;2.38;;;14.10;99.90;;;;;;5073555;28;20555;-71
2023/04/12 11:39:10;;;;;;;12.52;2.55;;;14.50;99.90;;;;;;5073306;28;20036;-72
2023/04/12 11:41:36;;;;;;;12.40;3.55;;;14.80;99.90;;;;;;5072940;28;20401;-72
2023/04/12 11:44:02;;;;;;;12.40;2.50;;;14.70;99.90;;;;;;5072892;28;20036;-72
2023/04/12 11:46:32;;;;;;;15.10;2.55;;;14.10;99.90;;;;;;5072756;28;20068;-71
2023/04/12 11:48:58;;;;;;;13.15;2.92;;;13.60;99.90;;;;;;5073251;28;20180;-71
2023/04/12 11:51:25;;;;;;;15.48;3.05;;;13.50;99.90;;;;;;5072709;28;20044;-71
2023/04/12 11:53:53;;;;;;;11.40;2.83;;;13.20;99.90;;;;;;5072776;28;20051;-71
2023/04/12 11:56:18;;;;;;;14.43;3.03;;;13.10;99.90;;;;;;5072512;28;20049;-71
2023/04/12 11:58:46;;;;;;;16.92;3.03;;;13.00;99.90;;;;;;5072432;28;20063;-71
2023/04/12 12:01:14;;;;;;;14.98;2.97;;;12.90;99.90;;;;;;5072413;28;20481;-71
2023/04/12 12:03:40;;;;;;;16.17;2.65;;;13.10;99.90;;;;;;5072666;28;20041;-71
2023/04/12 12:06:07;;;;;;;16.63;2.80;;;13.40;99.90;;;;;;5072709;28;20045;-72
2023/04/12 12:08:33;;;;;;;17.88;3.10;;;13.60;99.90;;;;;;5072591;28;20079;-72
2023/04/12 12:10:59;;;;;;;22.40;2.85;;;13.90;99.90;;;;;;5072532;28;20147;-72
2023/04/12 12:13:25;;;;;;;17.40;2.58;;;14.00;99.90;;;;;;5055606;28;20499;-72
2023/04/12 12:15:51;;;;;;;18.70;3.47;;;14.10;99.90;;;;;;5072204;28;20032;-72
2023/04/12 12:18:17;;;;;;;14.70;3.03;;;14.00;99.90;;;;;;5055578;28;20047;-72
2023/04/12 12:20:50;;;;;;;10.45;2.05;;;13.80;99.90;;;;;;5072372;28;20032;-72
2023/04/12 12:23:31;;;;;;;;;;;13.90;99.90;;;;;;5072535;28;20405;-72
2023/04/12 12:26:05;;;;;;;13.15;2.40;;;14.10;96.90;;;;;;5055468;28;19916;-72
2023/04/12 12:28:38;;;;;;;13.57;2.20;;;14.30;98.20;;;;;;5072085;28;20496;-72
2023/04/12 12:31:11;;;;;;;10.23;2.42;;;14.50;97.30;;;;;;5072005;28;20032;-72
2023/04/12 12:33:38;;;;;;;11.38;2.55;;;14.50;95.80;;;;;;5071965;28;20090;-72
2023/04/12 12:36:04;;;;;;;15.43;2.78;;;14.60;95.70;;;;;;5071991;28;20036;-72
2023/04/12 12:38:38;;;;;;;12.48;2.55;;;14.80;95.10;;;;;;5071847;28;20043;-72
2023/04/12 12:41:23;;;;;;;6.22;1.48;;;14.90;93.50;;;;;;5072096;28;20113;-71
2023/04/12 12:43:51;;;;;;;11.05;1.92;;;14.90;90.80;;;;;;5071846;28;20499;-72
2023/04/12 12:46:18;;;;;;;9.88;2.38;;;14.90;90.90;;;;;;5072096;28;20046;-72
2023/04/12 12:48:45;;;;;;;9.85;1.70;;;15.00;90.70;;;;;;5072039;28;20045;-72
2023/04/12 12:51:12;;;;;;;12.88;2.38;;;15.10;87.40;;;;;;5071762;28;20412;-72
2023/04/12 12:53:39;;;;;;;13.35;2.05;;;15.10;85.90;;;;;;5071782;28;20048;-72
2023/04/12 12:56:08;;;;;;;9.57;1.67;;;15.20;84.20;;;;;;5071738;28;20048;-72
2023/04/12 12:58:34;;;;;;;9.95;2.22;;;15.20;86.40;;;;;;5071648;28;20416;-72